Time;durP1;ratioP1;P1;durP2;ratioP2;P2;SDS_P1;SDS_P2;PMS_P1;PMS_P2;Temp;Humidity;BMP_temperature;BMP_pressure;BME280_temperature;BME280_humidity;BME280_pressure;Samples;Min_cycle;Max_cycle;Signal;HPM_P1;HPM_P2
2022/04/07 00:01:08;;;;;;;8.85;2.80;;;9.70;99.90;;;;;;5038868;28;20172;-66
2022/04/07 00:03:34;;;;;;;7.88;3.00;;;9.70;99.90;;;;;;5042610;28;20052;-66
2022/04/07 00:06:00;;;;;;;9.77;3.28;;;9.70;99.90;;;;;;5045365;28;20053;-67
2022/04/07 00:08:26;;;;;;;8.60;3.30;;;9.70;99.90;;;;;;5039271;28;20111;-67
2022/04/07 00:10:51;;;;;;;11.77;3.40;;;9.70;99.90;;;;;;5038451;28;20080;-67
2022/04/07 00:13:17;;;;;;;9.70;3.70;;;9.70;99.90;;;;;;5038925;28;20099;-66
2022/04/07 00:15:43;;;;;;;10.52;3.20;;;9.70;99.90;;;;;;5039300;28;20041;-67
2022/04/07 00:18:09;;;;;;;8.50;3.67;;;9.70;99.90;;;;;;5028124;28;20777;-66
2022/04/07 00:20:35;;;;;;;8.43;3.55;;;9.70;99.90;;;;;;5047024;28;20137;-67
2022/04/07 00:23:01;;;;;;;9.50;4.25;;;9.60;99.90;;;;;;5049558;28;20123;-66
2022/04/07 00:25:26;;;;;;;9.45;3.65;;;9.70;99.90;;;;;;5044863;28;20076;-66
2022/04/07 00:27:53;;;;;;;7.63;4.13;;;9.70;99.90;;;;;;5043577;28;20060;-66
2022/04/07 00:30:20;;;;;;;10.50;4.60;;;9.70;99.90;;;;;;5035245;28;20046;-67
2022/04/07 00:32:47;;;;;;;8.23;4.30;;;9.70;99.90;;;;;;5046763;28;20048;-67
2022/04/07 00:35:13;;;;;;;7.63;4.00;;;9.70;99.90;;;;;;5044830;28;20540;-67
2022/04/07 00:37:39;;;;;;;5.90;3.95;;;9.70;99.90;;;;;;5021858;28;20041;-66
2022/04/07 00:40:07;;;;;;;8.23;4.03;;;9.70;99.90;;;;;;5039439;28;20148;-67
2022/04/07 00:42:33;;;;;;;8.70;4.70;;;9.70;99.90;;;;;;5045612;28;20045;-66
2022/04/07 00:44:59;;;;;;;9.90;4.95;;;9.70;99.90;;;;;;5036757;28;20045;-67
2022/04/07 00:47:27;;;;;;;8.77;4.22;;;9.70;99.90;;;;;;5042621;28;20044;-67
2022/04/07 00:49:53;;;;;;;10.23;5.15;;;9.70;99.90;;;;;;5047221;28;20060;-66
2022/04/07 00:52:20;;;;;;;10.65;5.53;;;9.70;99.90;;;;;;5045440;28;20041;-67
2022/04/07 00:54:46;;;;;;;9.93;5.18;;;9.60;99.90;;;;;;5039520;28;20151;-67
2022/04/07 00:57:12;;;;;;;7.90;5.25;;;9.60;99.90;;;;;;5041462;28;20123;-66
2022/04/07 00:59:39;;;;;;;9.82;5.60;;;9.60;99.90;;;;;;5041491;28;20079;-67
2022/04/07 01:02:06;;;;;;;10.48;5.60;;;9.60;99.90;;;;;;5045445;28;20179;-67
2022/04/07 01:04:32;;;;;;;9.68;5.55;;;9.60;99.90;;;;;;5034596;28;20384;-66
2022/04/07 01:06:58;;;;;;;13.98;5.97;;;9.60;99.90;;;;;;5046651;28;20056;-67
2022/04/07 01:09:24;;;;;;;10.45;4.97;;;9.60;99.90;;;;;;5045609;28;20048;-66
2022/04/07 01:11:51;;;;;;;11.13;5.15;;;9.60;99.90;;;;;;5042844;28;20046;-67
2022/04/07 01:14:16;;;;;;;7.63;4.40;;;9.60;99.90;;;;;;5042801;28;20088;-67
2022/04/07 01:16:43;;;;;;;11.45;5.18;;;9.50;99.90;;;;;;5037983;28;20068;-66
2022/04/07 01:19:09;;;;;;;9.93;4.88;;;9.50;99.90;;;;;;5038926;28;20049;-67
2022/04/07 01:21:37;;;;;;;10.15;4.72;;;9.50;99.90;;;;;;5037197;28;20485;-67
2022/04/07 01:24:05;;;;;;;10.95;4.40;;;9.50;99.90;;;;;;5045384;28;20048;-67
2022/04/07 01:26:40;;;;;;;13.05;4.03;;;9.50;99.90;;;;;;5041063;28;20114;-65
2022/04/07 01:29:07;;;;;;;9.70;3.50;;;9.50;99.90;;;;;;5032795;28;20614;-66
2022/04/07 01:31:33;;;;;;;8.43;3.25;;;9.50;99.90;;;;;;5036546;28;20041;-67
2022/04/07 01:34:00;;;;;;;7.93;2.65;;;9.50;99.90;;;;;;5041893;28;20143;-66
2022/04/07 01:36:33;;;;;;;9.32;2.50;;;9.50;99.90;;;;;;5040613;28;20120;-65
2022/04/07 01:39:01;;;;;;;8.75;2.40;;;9.50;99.90;;;;;;5033789;28;20096;-65
2022/04/07 01:41:27;;;;;;;6.82;2.63;;;9.40;99.90;;;;;;5042821;28;20045;-66
2022/04/07 01:43:56;;;;;;;8.32;3.00;;;9.40;99.90;;;;;;5039513;28;20565;-67
2022/04/07 01:46:22;;;;;;;10.32;3.05;;;9.40;99.90;;;;;;5043989;28;20545;-67
2022/04/07 01:48:50;;;;;;;8.57;2.72;;;9.40;99.90;;;;;;5041308;28;20045;-67
2022/04/07 01:51:16;;;;;;;8.02;3.00;;;9.40;99.90;;;;;;5040254;28;20404;-67
2022/04/07 01:53:43;;;;;;;8.18;3.22;;;9.40;99.90;;;;;;5040250;28;20415;-67
2022/04/07 01:56:09;;;;;;;8.25;2.83;;;9.40;99.90;;;;;;5043840;28;20040;-66
2022/04/07 01:58:36;;;;;;;14.60;3.30;;;9.40;99.90;;;;;;5041565;28;20053;-67
2022/04/07 02:01:05;;;;;;;11.23;3.58;;;9.40;99.90;;;;;;5057051;28;20511;-66
2022/04/07 02:03:30;;;;;;;12.40;3.17;;;9.40;99.90;;;;;;5041397;28;20040;-66
2022/04/07 02:06:09;;;;;;;12.70;3.20;;;9.40;99.90;;;;;;5037682;28;20040;-66
2022/04/07 02:08:35;;;;;;;12.55;3.70;;;9.40;99.90;;;;;;5036926;28;20398;-67
2022/04/07 02:11:00;;;;;;;13.50;3.10;;;9.40;99.90;;;;;;5039935;28;20049;-67
2022/04/07 02:13:26;;;;;;;14.40;3.90;;;9.40;99.90;;;;;;5046043;28;20052;-68
2022/04/07 02:15:51;;;;;;;10.82;2.97;;;9.40;99.90;;;;;;5031360;28;20048;-66
2022/04/07 02:18:17;;;;;;;12.43;3.35;;;9.40;99.90;;;;;;5039833;28;20194;-65
2022/04/07 02:20:42;;;;;;;11.63;3.20;;;9.40;99.90;;;;;;5042291;28;20045;-66
2022/04/07 02:23:08;;;;;;;10.88;3.45;;;9.40;99.90;;;;;;5046977;28;20391;-66
2022/04/07 02:25:34;;;;;;;10.48;3.33;;;9.40;99.90;;;;;;5042706;28;20041;-67
2022/04/07 02:27:59;;;;;;;11.55;3.20;;;9.40;99.90;;;;;;5036419;28;20539;-66
2022/04/07 02:30:25;;;;;;;12.48;3.75;;;9.40;99.90;;;;;;5035719;28;20149;-66
2022/04/07 02:32:50;;;;;;;11.68;3.13;;;9.40;99.90;;;;;;5040047;28;20462;-66
2022/04/07 02:35:16;;;;;;;12.40;3.20;;;9.40;99.90;;;;;;5043045;28;20053;-66
2022/04/07 02:37:42;;;;;;;9.88;3.10;;;9.40;99.90;;;;;;5037318;28;20041;-67
2022/04/07 02:40:08;;;;;;;12.85;3.17;;;9.40;99.90;;;;;;5041225;28;20049;-66
2022/04/07 02:42:35;;;;;;;12.00;3.33;;;9.40;99.90;;;;;;5045349;28;20119;-67
2022/04/07 02:45:01;;;;;;;13.38;3.30;;;9.40;99.90;;;;;;5034584;28;20091;-66
2022/04/07 02:47:38;;;;;;;9.05;3.15;;;9.40;99.90;;;;;;5041318;28;20199;-66
2022/04/07 02:50:05;;;;;;;10.32;2.95;;;9.40;99.90;;;;;;5042989;28;20037;-65
2022/04/07 02:52:30;;;;;;;13.05;2.90;;;9.40;99.90;;;;;;5035967;28;20041;-66
2022/04/07 02:54:56;;;;;;;11.40;2.95;;;9.40;99.90;;;;;;5040576;28;20383;-65
2022/04/07 02:57:23;;;;;;;14.70;3.10;;;9.30;99.90;;;;;;5036860;28;20042;-66
2022/04/07 02:59:48;;;;;;;8.95;2.80;;;9.30;99.90;;;;;;5034056;28;20968;-66
2022/04/07 03:02:14;;;;;;;11.60;2.90;;;9.30;99.90;;;;;;5038952;28;20119;-66
2022/04/07 03:04:40;;;;;;;13.13;2.67;;;9.30;99.90;;;;;;5042261;28;20107;-65
2022/04/07 03:07:05;;;;;;;12.85;3.30;;;9.30;99.90;;;;;;5037328;28;20129;-66
2022/04/07 03:09:31;;;;;;;18.48;3.60;;;9.30;99.90;;;;;;5038971;28;20049;-66
2022/04/07 03:11:56;;;;;;;11.52;3.05;;;9.30;99.90;;;;;;5016496;28;20092;-66
2022/04/07 03:14:22;;;;;;;11.10;2.35;;;9.20;99.90;;;;;;5032694;28;20064;-66
2022/04/07 03:16:48;;;;;;;9.88;2.38;;;9.20;99.90;;;;;;5038241;28;20472;-66
2022/04/07 03:19:17;;;;;;;11.45;3.80;;;9.20;99.90;;;;;;5038135;28;20120;-66
2022/04/07 03:21:43;;;;;;;12.65;3.55;;;9.20;99.90;;;;;;5037499;28;20566;-66
2022/04/07 03:24:09;;;;;;;15.15;3.88;;;9.20;99.90;;;;;;5043301;28;20064;-66
2022/04/07 03:26:35;;;;;;;9.82;3.53;;;9.20;99.90;;;;;;5044357;28;20368;-66
2022/04/07 03:29:00;;;;;;;15.30;3.83;;;9.10;99.90;;;;;;5039968;28;20056;-66
2022/04/07 03:31:26;;;;;;;11.40;3.38;;;9.10;99.90;;;;;;5038635;28;20049;-66
2022/04/07 03:33:51;;;;;;;14.10;4.20;;;9.10;99.90;;;;;;5043901;28;20053;-66
2022/04/07 03:36:17;;;;;;;11.55;3.35;;;9.10;99.90;;;;;;5041648;28;20099;-66
2022/04/07 03:38:43;;;;;;;9.15;3.00;;;9.10;99.90;;;;;;5042264;28;20063;-66
2022/04/07 03:41:08;;;;;;;10.52;2.75;;;9.10;99.90;;;;;;5036042;28;20069;-66
2022/04/07 03:43:34;;;;;;;11.40;3.10;;;9.10;99.90;;;;;;5041876;28;20075;-67
2022/04/07 03:46:00;;;;;;;12.70;4.05;;;9.10;99.90;;;;;;5038223;28;20048;-66
2022/04/07 03:48:25;;;;;;;13.13;3.80;;;9.10;99.90;;;;;;5039044;28;20521;-66
2022/04/07 03:50:51;;;;;;;19.23;4.60;;;9.10;99.90;;;;;;5035557;28;20449;-66
2022/04/07 03:53:16;;;;;;;14.20;3.88;;;9.10;99.90;;;;;;5045471;28;20063;-66
2022/04/07 03:55:42;;;;;;;16.52;4.65;;;9.10;99.90;;;;;;5040031;28;20061;-66
2022/04/07 03:58:07;;;;;;;15.85;4.63;;;9.10;99.90;;;;;;5038661;28;20462;-66
2022/04/07 04:00:33;;;;;;;17.52;4.50;;;9.10;99.90;;;;;;5046705;28;20502;-66
2022/04/07 04:02:59;;;;;;;16.25;4.57;;;9.10;99.90;;;;;;5039982;28;20632;-66
2022/04/07 04:05:24;;;;;;;16.20;4.55;;;9.10;99.90;;;;;;5044013;28;20045;-66
2022/04/07 04:07:50;;;;;;;22.95;4.22;;;9.10;99.90;;;;;;5043677;28;20471;-66
2022/04/07 04:10:15;;;;;;;18.02;4.57;;;9.10;99.90;;;;;;5046151;28;20060;-66
2022/04/07 04:12:41;;;;;;;15.73;3.75;;;9.10;99.90;;;;;;5048936;28;20069;-66
2022/04/07 04:15:07;;;;;;;22.33;4.30;;;9.20;99.90;;;;;;5035714;28;20124;-66
2022/04/07 04:17:33;;;;;;;14.50;3.67;;;9.10;99.90;;;;;;5039144;28;20044;-66
2022/04/07 04:19:59;;;;;;;19.85;4.10;;;9.10;99.90;;;;;;5041432;28;20458;-65
2022/04/07 04:22:25;;;;;;;16.52;3.80;;;9.10;99.90;;;;;;5039256;28;20041;-66
2022/04/07 04:24:50;;;;;;;16.17;4.05;;;9.10;99.90;;;;;;5032161;28;20049;-66
2022/04/07 04:27:16;;;;;;;21.33;4.72;;;9.20;99.90;;;;;;5042370;28;20317;-65
2022/04/07 04:29:43;;;;;;;20.30;3.70;;;9.10;99.90;;;;;;5038710;28;20037;-66
2022/04/07 04:32:12;;;;;;;20.63;4.40;;;9.20;99.90;;;;;;5037484;28;20079;-65
2022/04/07 04:34:37;;;;;;;19.02;4.05;;;9.20;99.90;;;;;;5039601;28;20107;-66
2022/04/07 04:37:03;;;;;;;17.38;3.63;;;9.20;99.90;;;;;;5040097;28;20138;-66
2022/04/07 04:39:29;;;;;;;18.00;4.20;;;9.20;99.90;;;;;;5037363;28;20041;-67
2022/04/07 04:41:54;;;;;;;19.63;3.78;;;9.10;99.90;;;;;;5039784;28;20041;-65
2022/04/07 04:44:20;;;;;;;18.20;3.92;;;9.10;99.90;;;;;;5036133;28;20056;-66
2022/04/07 04:46:45;;;;;;;16.45;4.25;;;9.10;99.90;;;;;;5042668;28;20037;-65
2022/04/07 04:49:11;;;;;;;22.13;5.00;;;9.10;99.90;;;;;;5041639;28;20103;-65
2022/04/07 04:51:37;;;;;;;20.25;4.32;;;9.10;99.90;;;;;;5038334;28;20636;-65
2022/04/07 04:54:02;;;;;;;20.48;4.85;;;9.10;99.90;;;;;;5046983;28;20037;-65
2022/04/07 04:56:28;;;;;;;19.83;4.65;;;9.10;99.90;;;;;;5044542;28;20132;-66
2022/04/07 04:58:54;;;;;;;19.63;4.82;;;9.10;99.90;;;;;;5045263;28;20048;-66
2022/04/07 05:01:20;;;;;;;20.67;4.50;;;9.00;99.90;;;;;;5042534;28;20055;-66
2022/04/07 05:03:45;;;;;;;32.72;6.03;;;9.00;99.90;;;;;;5041012;28;20037;-66
2022/04/07 05:06:11;;;;;;;15.13;4.78;;;9.00;99.90;;;;;;5041664;28;20487;-67
2022/04/07 05:08:36;;;;;;;15.73;4.32;;;9.10;99.90;;;;;;5041216;28;20077;-65
2022/04/07 05:11:02;;;;;;;16.13;4.43;;;9.10;99.90;;;;;;5033866;28;20045;-66
2022/04/07 05:13:28;;;;;;;14.85;4.35;;;9.10;99.90;;;;;;5032870;28;20430;-64
2022/04/07 05:15:53;;;;;;;16.15;4.45;;;9.00;99.90;;;;;;5042760;28;20054;-65
2022/04/07 05:18:19;;;;;;;13.13;4.25;;;9.10;99.90;;;;;;5045012;28;20087;-66
2022/04/07 05:20:44;;;;;;;14.18;4.20;;;9.10;99.90;;;;;;5038447;28;20036;-66
2022/04/07 05:23:10;;;;;;;14.77;4.43;;;9.00;99.90;;;;;;5039930;28;20527;-65
2022/04/07 05:25:36;;;;;;;16.33;5.00;;;9.10;99.90;;;;;;5037925;28;20072;-67
2022/04/07 05:28:02;;;;;;;15.40;4.70;;;9.10;99.90;;;;;;5046358;28;20043;-65
2022/04/07 05:30:29;;;;;;;16.35;4.47;;;9.10;99.90;;;;;;5039761;28;20041;-65
2022/04/07 05:32:55;;;;;;;9.93;3.95;;;9.10;99.90;;;;;;5036396;28;20132;-66
2022/04/07 05:35:21;;;;;;;10.95;4.55;;;9.10;99.90;;;;;;5041117;28;20119;-65
2022/04/07 05:37:46;;;;;;;16.92;5.13;;;9.10;99.90;;;;;;5042857;28;20068;-65
2022/04/07 05:40:13;;;;;;;9.13;1.70;;;9.10;99.90;;;;;;5043725;28;20046;-64
2022/04/07 05:42:38;;;;;;;5.93;1.02;;;8.30;99.90;;;;;;5034429;28;20072;-64
2022/04/07 05:45:05;;;;;;;3.75;0.85;;;7.70;99.90;;;;;;5045452;28;20060;-65
2022/04/07 05:47:30;;;;;;;5.75;1.10;;;7.10;99.90;;;;;;5047950;28;20068;-64
2022/04/07 05:49:56;;;;;;;3.65;0.80;;;6.80;99.90;;;;;;5036927;28;20072;-64
2022/04/07 05:52:22;;;;;;;3.08;0.73;;;6.70;99.90;;;;;;5039988;28;20112;-65
2022/04/07 05:54:48;;;;;;;6.07;1.17;;;6.60;99.90;;;;;;5038500;28;20049;-64
2022/04/07 05:57:14;;;;;;;4.82;0.90;;;6.60;99.90;;;;;;5036134;28;20047;-66
2022/04/07 05:59:39;;;;;;;6.88;1.10;;;6.60;99.90;;;;;;5043861;28;20041;-65
2022/04/07 06:02:05;;;;;;;3.67;0.70;;;6.60;99.90;;;;;;5043848;28;20599;-64
2022/04/07 06:04:31;;;;;;;2.38;0.80;;;6.60;99.90;;;;;;5044734;28;20451;-65
2022/04/07 06:06:56;;;;;;;3.15;1.00;;;6.50;99.90;;;;;;5034191;28;20539;-65
2022/04/07 06:09:22;;;;;;;3.95;0.90;;;6.60;99.90;;;;;;5047809;28;20045;-65
2022/04/07 06:11:47;;;;;;;5.68;1.10;;;6.60;99.90;;;;;;5049022;28;20452;-65
2022/04/07 06:14:13;;;;;;;4.90;1.20;;;6.50;99.90;;;;;;5045116;28;20083;-65
2022/04/07 06:16:39;;;;;;;5.25;1.05;;;6.50;99.90;;;;;;5040823;28;20086;-65
2022/04/07 06:19:04;;;;;;;4.00;0.85;;;6.60;99.90;;;;;;5046944;28;20045;-66
2022/04/07 06:21:30;;;;;;;6.10;1.00;;;6.50;99.90;;;;;;5028589;28;20041;-65
2022/04/07 06:23:59;;;;;;;4.53;0.98;;;6.60;99.90;;;;;;5035069;28;20104;-66
2022/04/07 06:26:25;;;;;;;4.72;1.10;;;6.60;99.90;;;;;;5048145;28;20124;-65
2022/04/07 06:28:51;;;;;;;5.68;0.90;;;6.60;99.90;;;;;;5029711;28;20175;-65
2022/04/07 06:31:17;;;;;;;3.15;1.10;;;6.60;99.90;;;;;;5035707;28;20060;-66
2022/04/07 06:33:43;;;;;;;4.32;0.90;;;6.50;99.90;;;;;;5035571;28;20037;-65
2022/04/07 06:36:08;;;;;;;4.65;1.02;;;6.50;99.90;;;;;;5047208;28;20116;-66
2022/04/07 06:38:34;;;;;;;4.07;0.82;;;6.40;99.90;;;;;;5046853;28;20109;-65
2022/04/07 06:41:00;;;;;;;4.07;1.00;;;6.40;99.90;;;;;;5044772;28;20380;-65
2022/04/07 06:43:26;;;;;;;2.92;0.50;;;6.40;99.90;;;;;;5037047;28;20041;-66
2022/04/07 06:45:52;;;;;;;4.32;0.60;;;6.30;99.90;;;;;;5033324;28;20114;-66
2022/04/07 06:48:17;;;;;;;4.22;0.82;;;6.40;99.90;;;;;;5033918;28;20413;-66
2022/04/07 06:50:44;;;;;;;3.15;1.00;;;6.40;99.90;;;;;;5043666;28;20029;-66
2022/04/07 06:53:11;;;;;;;2.13;0.70;;;6.40;99.90;;;;;;5033516;28;20063;-66
2022/04/07 06:55:38;;;;;;;3.38;0.80;;;6.40;99.90;;;;;;5044390;28;20449;-65
2022/04/07 06:58:06;;;;;;;2.67;0.70;;;6.40;99.90;;;;;;5033228;28;20095;-66
2022/04/07 07:00:34;;;;;;;5.65;0.90;;;6.40;99.90;;;;;;5044015;28;20046;-66
2022/04/07 07:03:02;;;;;;;2.60;0.90;;;6.50;99.90;;;;;;5045430;28;20071;-66
2022/04/07 07:05:30;;;;;;;5.50;1.10;;;6.40;99.90;;;;;;5033168;28;20053;-66
2022/04/07 07:07:56;;;;;;;3.25;1.25;;;6.40;99.90;;;;;;5027516;28;20505;-66
2022/04/07 07:10:23;;;;;;;7.22;1.00;;;6.40;99.90;;;;;;5038972;28;20041;-66
2022/04/07 07:12:50;;;;;;;5.88;1.23;;;6.40;99.90;;;;;;5046549;28;20151;-66
2022/04/07 07:15:16;;;;;;;7.90;1.00;;;6.40;99.90;;;;;;5043049;28;20052;-66
2022/04/07 07:17:41;;;;;;;5.25;1.25;;;6.40;99.90;;;;;;5030908;28;20051;-66
2022/04/07 07:20:10;;;;;;;3.58;0.80;;;6.50;99.90;;;;;;5055662;28;20049;-65
2022/04/07 07:22:41;;;;;;;4.07;1.10;;;6.50;99.90;;;;;;5058733;28;20383;-66
2022/04/07 07:25:08;;;;;;;5.53;1.00;;;6.50;99.90;;;;;;5048889;28;20139;-66
2022/04/07 07:27:38;;;;;;;4.88;0.88;;;6.50;99.90;;;;;;5049937;28;20589;-66
2022/04/07 07:30:08;;;;;;;4.00;0.90;;;6.50;99.90;;;;;;5049197;28;20414;-65
2022/04/07 07:32:34;;;;;;;3.97;1.10;;;6.50;99.90;;;;;;5035973;28;20055;-66
2022/04/07 07:34:59;;;;;;;4.60;1.13;;;6.50;99.90;;;;;;5044063;28;20041;-64
2022/04/07 07:37:25;;;;;;;4.22;1.00;;;6.50;99.90;;;;;;5052030;28;20045;-65
2022/04/07 07:39:50;;;;;;;4.63;0.90;;;6.40;99.90;;;;;;5049081;28;20115;-64
2022/04/07 07:42:16;;;;;;;5.20;0.90;;;6.50;99.90;;;;;;5048129;28;20144;-65
2022/04/07 07:44:42;;;;;;;4.38;0.93;;;6.50;99.90;;;;;;5050157;28;20367;-65
2022/04/07 07:47:07;;;;;;;1.83;0.77;;;6.60;99.90;;;;;;5038515;28;20530;-67
2022/04/07 07:49:33;;;;;;;5.60;0.88;;;6.60;99.90;;;;;;5040179;28;20104;-67
2022/04/07 07:51:58;;;;;;;4.20;0.82;;;6.60;99.90;;;;;;5048376;28;20122;-66
2022/04/07 07:54:24;;;;;;;3.65;0.73;;;6.70;99.90;;;;;;5046025;28;20369;-66
2022/04/07 07:56:49;;;;;;;3.10;0.80;;;6.80;99.90;;;;;;5037002;28;20041;-67
2022/04/07 07:59:15;;;;;;;6.82;1.15;;;6.80;99.90;;;;;;5041403;28;20048;-66
2022/04/07 08:01:43;;;;;;;4.43;0.95;;;6.80;99.90;;;;;;5040152;28;20083;-66
2022/04/07 08:04:09;;;;;;;3.88;0.75;;;6.80;99.90;;;;;;5044557;28;20473;-67
2022/04/07 08:06:34;;;;;;;4.22;0.77;;;6.90;99.90;;;;;;5050276;28;20437;-66
2022/04/07 08:09:00;;;;;;;2.30;0.60;;;7.00;99.90;;;;;;5050417;28;20053;-67
2022/04/07 08:11:25;;;;;;;3.00;0.90;;;7.10;99.90;;;;;;5033430;28;20041;-66
2022/04/07 08:13:51;;;;;;;3.92;1.00;;;7.10;99.90;;;;;;5048702;28;20432;-65
2022/04/07 08:16:16;;;;;;;4.00;0.90;;;7.20;99.90;;;;;;5038572;28;20087;-65
2022/04/07 08:18:43;;;;;;;3.38;0.75;;;7.20;99.90;;;;;;5032374;28;20103;-65
2022/04/07 08:21:08;;;;;;;5.00;0.82;;;7.30;99.90;;;;;;5033116;28;20053;-65
2022/04/07 08:23:34;;;;;;;7.10;1.23;;;7.30;99.90;;;;;;5048239;28;20044;-63
2022/04/07 08:25:59;;;;;;;4.15;0.60;;;7.40;99.90;;;;;;5048752;28;20053;-65
2022/04/07 08:28:25;;;;;;;6.00;1.17;;;7.40;99.90;;;;;;5048668;28;20114;-65
2022/04/07 08:30:51;;;;;;;4.43;1.00;;;7.60;99.90;;;;;;5040125;28;20041;-66
2022/04/07 08:33:16;;;;;;;2.45;0.65;;;7.60;99.90;;;;;;5029810;28;20061;-65
2022/04/07 08:35:42;;;;;;;3.75;0.70;;;7.60;99.90;;;;;;5035759;28;20113;-65
2022/04/07 08:38:09;;;;;;;4.68;0.90;;;7.60;99.90;;;;;;5035160;28;20435;-66
2022/04/07 08:40:38;;;;;;;6.10;1.40;;;7.60;99.90;;;;;;5037876;28;20502;-66
2022/04/07 08:43:04;;;;;;;4.38;0.88;;;7.80;99.90;;;;;;5047550;28;20037;-65
2022/04/07 08:45:30;;;;;;;4.10;0.82;;;7.90;99.90;;;;;;5031686;28;20094;-66
2022/04/07 08:47:57;;;;;;;6.25;1.40;;;8.10;99.90;;;;;;5036388;28;20140;-66
2022/04/07 08:50:23;;;;;;;4.80;1.00;;;8.30;99.90;;;;;;5043691;28;20120;-66
2022/04/07 08:52:49;;;;;;;3.67;0.93;;;8.40;99.90;;;;;;5038184;28;20056;-65
2022/04/07 08:55:14;;;;;;;4.00;0.80;;;8.50;99.90;;;;;;5038015;28;20045;-66
2022/04/07 08:57:41;;;;;;;5.22;1.05;;;8.60;99.90;;;;;;5043965;28;20428;-66
2022/04/07 09:00:08;;;;;;;4.45;0.93;;;8.70;99.90;;;;;;5047205;28;20120;-65
2022/04/07 09:02:33;;;;;;;4.97;1.00;;;8.80;99.90;;;;;;5040398;28;20041;-66
2022/04/07 09:04:59;;;;;;;3.85;0.90;;;8.90;99.90;;;;;;5038371;28;20056;-65
2022/04/07 09:07:32;;;;;;;6.72;1.00;;;9.00;99.90;;;;;;5043835;28;20403;-66
2022/04/07 09:10:02;;;;;;;3.90;0.88;;;9.10;99.90;;;;;;5032154;28;20050;-65
2022/04/07 09:12:28;;;;;;;5.50;1.20;;;9.20;99.90;;;;;;5043548;28;20041;-65
2022/04/07 09:14:59;;;;;;;6.22;1.17;;;9.30;99.90;;;;;;5034272;28;20369;-66
2022/04/07 09:17:25;;;;;;;4.97;1.02;;;9.30;99.90;;;;;;5048176;28;20048;-66
2022/04/07 09:19:52;;;;;;;6.10;1.10;;;9.50;99.90;;;;;;5045507;28;20114;-65
2022/04/07 09:22:17;;;;;;;9.02;1.50;;;9.60;99.90;;;;;;5044842;28;20048;-65
2022/04/07 09:24:43;;;;;;;8.63;1.35;;;9.70;99.90;;;;;;5040407;28;20045;-65
2022/04/07 09:27:10;;;;;;;3.70;0.90;;;9.80;99.90;;;;;;5045746;28;20064;-65
2022/04/07 09:29:46;;;;;;;6.90;1.30;;;10.00;99.90;;;;;;5042620;28;20059;-66
2022/04/07 09:32:20;;;;;;;5.15;1.23;;;10.20;99.90;;;;;;5030364;28;20104;-66
2022/04/07 09:34:52;;;;;;;10.93;1.38;;;10.00;99.90;;;;;;5037241;28;20457;-65
2022/04/07 09:37:23;;;;;;;6.35;1.42;;;10.20;99.90;;;;;;5039661;28;20444;-65
2022/04/07 09:39:50;;;;;;;9.23;1.77;;;10.40;99.90;;;;;;5038343;28;20056;-66
2022/04/07 09:42:22;;;;;;;7.72;1.42;;;10.50;99.90;;;;;;5030840;28;20087;-65
2022/04/07 09:45:01;;;;;;;13.85;1.75;;;10.70;99.90;;;;;;5047779;28;20045;-65
2022/04/07 09:47:44;;;;;;;10.18;1.67;;;10.50;99.90;;;;;;5036523;28;20049;-65
2022/04/07 09:50:20;;;;;;;8.25;1.38;;;10.70;99.90;;;;;;5046712;28;20068;-67
2022/04/07 09:53:05;;;;;;;5.82;1.33;;;10.70;99.90;;;;;;5046808;28;20508;-65
2022/04/07 09:55:37;;;;;;;9.15;1.52;;;10.80;99.90;;;;;;5037859;28;20079;-67
2022/04/07 09:58:04;;;;;;;5.68;1.33;;;10.70;99.90;;;;;;5038788;28;20500;-66
2022/04/07 10:00:30;;;;;;;13.10;2.28;;;10.60;99.90;;;;;;5042130;28;20053;-66
2022/04/07 10:02:57;;;;;;;9.20;1.67;;;10.50;99.90;;;;;;5037776;28;20098;-66
2022/04/07 10:05:23;;;;;;;7.43;1.40;;;10.40;99.90;;;;;;5044925;28;20075;-65
2022/04/07 10:07:50;;;;;;;9.93;1.70;;;10.30;99.90;;;;;;5046255;28;20487;-65
2022/04/07 10:10:18;;;;;;;10.23;2.22;;;10.30;99.90;;;;;;5048225;28;20056;-66
2022/04/07 10:12:47;;;;;;;12.40;2.20;;;10.30;99.90;;;;;;5030205;28;20073;-64
2022/04/07 10:15:14;;;;;;;11.20;2.00;;;10.30;99.90;;;;;;5034536;28;20367;-66
2022/04/07 10:17:40;;;;;;;10.73;2.25;;;10.40;99.90;;;;;;5046963;28;20043;-65
2022/04/07 10:20:09;;;;;;;7.45;2.03;;;10.50;99.90;;;;;;5030687;28;20045;-65
2022/04/07 10:22:49;;;;;;;9.48;2.22;;;10.60;99.90;;;;;;5040798;28;20472;-65
2022/04/07 10:25:16;;;;;;;11.52;1.85;;;10.50;99.90;;;;;;5046153;28;20033;-65
2022/04/07 10:27:45;;;;;;;9.95;2.15;;;10.50;99.90;;;;;;5031150;28;20186;-65
2022/04/07 10:30:13;;;;;;;12.48;1.90;;;10.60;99.90;;;;;;5027362;28;20037;-65
2022/04/07 10:32:46;;;;;;;7.85;1.98;;;10.60;99.90;;;;;;5039285;28;20123;-64
2022/04/07 10:35:27;;;;;;;10.77;2.15;;;10.80;99.90;;;;;;5042711;28;20052;-66
2022/04/07 10:37:53;;;;;;;10.27;1.85;;;10.70;99.90;;;;;;5046164;28;20124;-66
2022/04/07 10:40:38;;;;;;;12.68;2.58;;;10.80;99.90;;;;;;5026329;28;20124;-66
2022/04/07 10:43:03;;;;;;;10.65;2.33;;;10.80;99.90;;;;;;5045166;28;20045;-66
2022/04/07 10:45:42;;;;;;;10.15;1.92;;;10.80;99.90;;;;;;5042248;28;20067;-65
2022/04/07 10:48:25;;;;;;;13.32;2.60;;;10.90;99.90;;;;;;5032021;28;20048;-66
2022/04/07 10:50:52;;;;;;;8.32;1.95;;;11.00;99.90;;;;;;5044225;28;20041;-67
2022/04/07 10:53:24;;;;;;;9.40;1.80;;;11.00;99.90;;;;;;5047849;28;20120;-65
2022/04/07 10:56:32;;;;;;;8.68;2.13;;;11.10;99.90;;;;;;5044279;28;20041;-67
2022/04/07 10:59:12;;;;;;;11.23;2.03;;;10.80;99.90;;;;;;5036874;28;20048;-66
2022/04/07 11:01:38;;;;;;;10.43;2.17;;;10.90;99.90;;;;;;5047930;28;20128;-67
2022/04/07 11:04:19;;;;;;;11.50;2.55;;;10.70;99.90;;;;;;5046555;28;20123;-67
2022/04/07 11:07:13;;;;;;;11.40;2.35;;;10.50;99.90;;;;;;5045195;28;20510;-67
2022/04/07 11:09:57;;;;;;;12.10;2.60;;;10.40;99.90;;;;;;5047211;28;20119;-67
2022/04/07 11:12:42;;;;;;;12.32;2.15;;;10.40;99.90;;;;;;5034058;28;20148;-67
2022/04/07 11:15:13;;;;;;;13.13;2.92;;;10.40;99.90;;;;;;5027058;28;20051;-67
2022/04/07 11:17:42;;;;;;;9.45;1.88;;;10.40;99.90;;;;;;5027997;28;20153;-66
2022/04/07 11:20:18;;;;;;;9.70;2.22;;;10.50;99.90;;;;;;5043322;28;20103;-67
2022/04/07 11:22:55;;;;;;;13.70;2.67;;;10.50;99.90;;;;;;5046794;28;20041;-66
2022/04/07 11:25:28;;;;;;;11.27;2.33;;;10.50;99.90;;;;;;5026070;28;20057;-68
2022/04/07 11:28:14;;;;;;;14.13;2.00;;;10.50;99.90;;;;;;5035078;28;20041;-67
2022/04/07 11:30:42;;;;;;;11.90;2.22;;;10.60;99.90;;;;;;5029841;28;20052;-67
2022/04/07 11:33:18;;;;;;;12.45;2.42;;;10.60;99.90;;;;;;5038232;28;20064;-66
2022/04/07 11:35:44;;;;;;;9.80;2.17;;;10.80;99.90;;;;;;5042513;28;20237;-67
2022/04/07 11:38:10;;;;;;;12.60;2.08;;;10.90;99.90;;;;;;5047631;28;20037;-68
2022/04/07 11:40:36;;;;;;;11.05;2.80;;;11.00;99.90;;;;;;5045330;28;20047;-67
2022/04/07 11:43:04;;;;;;;14.50;2.42;;;11.10;99.90;;;;;;5036225;28;20056;-66
2022/04/07 11:45:31;;;;;;;12.52;2.42;;;11.10;99.90;;;;;;5027637;28;20502;-67
2022/04/07 11:47:57;;;;;;;15.43;2.22;;;11.20;99.90;;;;;;5029221;28;20072;-66
2022/04/07 11:50:23;;;;;;;13.20;2.55;;;11.20;99.90;;;;;;5038550;28;20185;-67
2022/04/07 11:52:50;;;;;;;15.27;2.38;;;11.40;99.90;;;;;;5027269;28;20163;-66
2022/04/07 11:55:27;;;;;;;10.35;2.05;;;11.50;99.90;;;;;;5030006;28;20518;-66
2022/04/07 11:57:58;;;;;;;11.65;2.47;;;11.50;99.70;;;;;;5038866;28;20048;-67
2022/04/07 12:00:29;;;;;;;11.38;2.78;;;11.40;99.90;;;;;;5031158;28;20048;-66
2022/04/07 12:03:02;;;;;;;14.88;2.30;;;11.40;99.90;;;;;;5044567;28;20050;-67
2022/04/07 12:05:30;;;;;;;11.82;2.33;;;11.40;99.90;;;;;;5044612;28;20150;-66
2022/04/07 12:08:11;;;;;;;12.35;2.42;;;11.40;98.50;;;;;;5029271;28;20115;-67
2022/04/07 12:10:38;;;;;;;11.13;2.83;;;11.30;98.70;;;;;;5048344;28;20068;-67
2022/04/07 12:13:04;;;;;;;11.52;2.65;;;11.30;99.00;;;;;;5045964;28;20442;-66
2022/04/07 12:15:30;;;;;;;13.82;2.22;;;11.30;99.20;;;;;;5038292;28;20041;-67
2022/04/07 12:18:04;;;;;;;12.00;2.22;;;11.40;97.90;;;;;;5038641;28;20047;-67
2022/04/07 12:20:30;;;;;;;10.27;2.03;;;11.60;99.10;;;;;;5050499;28;20044;-67
2022/04/07 12:23:09;;;;;;;10.43;2.17;;;11.60;97.30;;;;;;5035579;28;20059;-66
2022/04/07 12:25:35;;;;;;;13.18;2.30;;;11.60;97.00;;;;;;5046678;28;20032;-66
2022/04/07 12:28:16;;;;;;;7.93;2.10;;;11.60;94.70;;;;;;5036237;28;20455;-68
2022/04/07 12:30:47;;;;;;;11.52;2.15;;;11.70;95.50;;;;;;5033136;28;20072;-67
2022/04/07 12:33:45;;;;;;;8.20;2.05;;;11.80;94.70;;;;;;5046334;28;20056;-66
2022/04/07 12:36:29;;;;;;;11.63;2.03;;;11.80;93.60;;;;;;5045892;28;20045;-67
2022/04/07 12:38:59;;;;;;;15.43;2.67;;;11.90;94.50;;;;;;5049487;28;20127;-67
2022/04/07 12:41:35;;;;;;;9.13;1.83;;;11.90;94.50;;;;;;5049492;28;20043;-66
2022/04/07 12:44:01;;;;;;;11.82;2.10;;;11.80;94.70;;;;;;5047890;28;20349;-66
2022/04/07 12:46:56;;;;;;;12.70;2.40;;;11.80;94.50;;;;;;5046767;28;20045;-66
2022/04/07 12:49:37;;;;;;;10.95;2.47;;;11.60;94.00;;;;;;5030407;28;20075;-67
2022/04/07 12:52:13;;;;;;;10.30;2.17;;;11.70;94.80;;;;;;5037563;28;20049;-68
2022/04/07 12:54:58;;;;;;;10.52;2.08;;;11.60;95.20;;;;;;5037006;28;20112;-67